Rechercher aéroport 
image banner adimage banner adimage banner ad
image banner ad

03CA - Grossmont Hospital

Situé à La Mesa, United States

ICAO - 03CA, IATA -

Données fournies par Airmate  

Information générale

Coordonnées: N32°46'46" W117°0'25"
Élévation : 634 feet MSL.
Variation magnétique : 13° East
Voir autres Aéroports à California

Données opérationnelles

Special qualification required
Heure actuelle UTC:
Heure actuelle locale:
Météo à : KSEE - Gillespie Field ( 6 km )
METAR: KSEE 231347Z 27005KT 10SM FEW100 19/14 A2992
Voir NOTAMs / SUP AIP / TFR affectant cet aéroport [VIEW]
Fréquences de communication: [VIEW]

Pistes:

Coordonnées de l'aéroport

Adresse: La Mesa United States

Vue satellite de 03CA